Time;durP1;ratioP1;P1;durP2;ratioP2;P2;SDS_P1;SDS_P2;PMS_P1;PMS_P2;Temp;Humidity;BMP_temperature;BMP_pressure;BME280_temperature;BME280_humidity;BME280_pressure;Samples;Min_cycle;Max_cycle;Signal;HPM_P1;HPM_P2
2021/01/03 00:00:34;;;;;;;28.05;18.73;;;;;;;;;;5068922;28;20221;-77
2021/01/03 00:03:01;;;;;;;31.23;18.60;;;;;;;;;;5070447;28;20259;-77
2021/01/03 00:05:29;;;;;;;31.42;18.55;;;;;;;;;;5069227;28;20266;-77
2021/01/03 00:07:56;;;;;;;32.30;19.90;;;;;;;;;;5070768;28;20202;-77
2021/01/03 00:10:23;;;;;;;30.10;18.58;;;;;;;;;;5071729;28;20544;-78
2021/01/03 00:12:50;;;;;;;27.17;17.10;;;;;;;;;;5071209;28;20208;-77
2021/01/03 00:15:19;;;;;;;28.92;18.30;;;;;;;;;;5072480;28;20295;-78
2021/01/03 00:17:46;;;;;;;29.40;16.85;;;;;;;;;;5071675;28;20218;-78
2021/01/03 00:20:15;;;;;;;28.77;18.20;;;;;;;;;;5068153;28;20205;-77
2021/01/03 00:22:42;;;;;;;23.35;15.52;;;;;;;;;;5068057;28;20194;-77
2021/01/03 00:25:10;;;;;;;28.40;17.10;;;;;;;;;;5070268;28;20232;-78
2021/01/03 00:27:37;;;;;;;31.90;18.35;;;;;;;;;;5070177;28;20293;-78
2021/01/03 00:30:05;;;;;;;30.88;18.77;;;;;;;;;;5066084;28;20226;-77
2021/01/03 00:32:33;;;;;;;24.40;17.23;;;;;;;;;;5067464;28;20205;-77
2021/01/03 00:35:00;;;;;;;27.25;17.52;;;;;;;;;;5072359;28;20226;-77
2021/01/03 00:37:27;;;;;;;31.20;19.45;;;;;;;;;;5072373;28;20224;-78
2021/01/03 00:39:54;;;;;;;28.42;17.60;;;;;;;;;;5071580;28;20194;-77
2021/01/03 00:42:21;;;;;;;32.53;18.15;;;;;;;;;;5067690;28;20369;-77
2021/01/03 00:44:48;;;;;;;29.30;18.35;;;;;;;;;;5068471;28;20217;-77
2021/01/03 00:47:15;;;;;;;28.63;18.05;;;;;;;;;;5070089;28;20194;-77
2021/01/03 00:49:42;;;;;;;30.00;16.88;;;;;;;;;;5070053;28;20259;-77
2021/01/03 00:52:09;;;;;;;24.05;16.48;;;;;;;;;;5070174;28;20290;-77
2021/01/03 00:54:36;;;;;;;28.25;16.60;;;;;;;;;;5071388;28;20603;-77
2021/01/03 00:57:03;;;;;;;24.80;15.00;;;;;;;;;;5071962;28;20705;-77
2021/01/03 00:59:30;;;;;;;27.33;16.38;;;;;;;;;;5071586;28;20270;-77
2021/01/03 01:01:56;;;;;;;23.42;15.55;;;;;;;;;;5071734;28;20241;-77
2021/01/03 01:04:23;;;;;;;22.98;15.80;;;;;;;;;;5067512;28;20279;-77
2021/01/03 01:06:51;;;;;;;24.40;15.57;;;;;;;;;;5068469;28;20538;-78
2021/01/03 01:09:18;;;;;;;24.55;16.85;;;;;;;;;;5069671;28;20191;-78
2021/01/03 01:11:45;;;;;;;23.13;14.27;;;;;;;;;;5069578;28;20199;-78
2021/01/03 01:14:12;;;;;;;21.38;15.02;;;;;;;;;;5069520;28;20686;-77
2021/01/03 01:16:39;;;;;;;26.65;15.77;;;;;;;;;;5071049;28;20202;-78
2021/01/03 01:19:06;;;;;;;24.30;16.42;;;;;;;;;;5071600;28;20218;-77
2021/01/03 01:21:33;;;;;;;24.95;15.05;;;;;;;;;;5070468;28;20204;-77
2021/01/03 01:24:00;;;;;;;26.48;16.48;;;;;;;;;;5070718;28;20226;-77
2021/01/03 01:26:27;;;;;;;22.77;14.70;;;;;;;;;;5066888;28;20624;-77
2021/01/03 01:28:54;;;;;;;21.90;14.60;;;;;;;;;;5068175;28;20195;-78
2021/01/03 01:31:21;;;;;;;25.67;15.73;;;;;;;;;;5069448;28;20731;-77
2021/01/03 01:33:48;;;;;;;22.75;14.70;;;;;;;;;;5069788;28;20267;-77
2021/01/03 01:36:15;;;;;;;32.47;16.20;;;;;;;;;;5073188;28;20204;-78
2021/01/03 01:38:42;;;;;;;22.15;13.75;;;;;;;;;;5074359;28;20316;-77
2021/01/03 01:41:09;;;;;;;22.92;15.18;;;;;;;;;;5074990;28;20208;-77
2021/01/03 01:43:36;;;;;;;23.73;15.35;;;;;;;;;;5075330;28;20217;-77
2021/01/03 01:46:04;;;;;;;23.48;14.68;;;;;;;;;;5074441;28;20208;-77
2021/01/03 01:48:33;;;;;;;25.40;15.93;;;;;;;;;;5070260;28;20668;-78
2021/01/03 01:51:05;;;;;;;23.98;15.40;;;;;;;;;;5071659;28;20677;-78
2021/01/03 01:53:33;;;;;;;23.65;15.75;;;;;;;;;;5071554;28;20698;-77
2021/01/03 01:56:03;;;;;;;21.00;14.00;;;;;;;;;;5072958;28;20198;-78
2021/01/03 01:58:37;;;;;;;25.90;15.82;;;;;;;;;;5071826;28;20228;-78
2021/01/03 02:01:06;;;;;;;22.40;14.90;;;;;;;;;;5054593;28;20291;-77
2021/01/03 02:03:36;;;;;;;17.35;12.07;;;;;;;;;;5054756;28;20222;-77
2021/01/03 02:06:05;;;;;;;23.08;14.10;;;;;;;;;;5054586;28;20598;-76
2021/01/03 02:08:34;;;;;;;17.55;10.73;;;;;;;;;;5059695;28;20232;-77
2021/01/03 02:11:01;;;;;;;14.70;8.70;;;;;;;;;;5070126;28;20205;-77
2021/01/03 02:13:30;;;;;;;8.88;6.28;;;;;;;;;;5070484;28;20230;-78
2021/01/03 02:15:59;;;;;;;9.73;6.63;;;;;;;;;;5072194;28;20201;-77
2021/01/03 02:18:26;;;;;;;9.25;6.60;;;;;;;;;;5070886;28;20224;-77
2021/01/03 02:20:56;;;;;;;9.55;6.90;;;;;;;;;;5071960;28;20579;-78
2021/01/03 02:23:30;;;;;;;11.50;7.55;;;;;;;;;;5073182;28;20228;-78
2021/01/03 02:25:58;;;;;;;10.85;6.40;;;;;;;;;;5074427;28;20567;-78
2021/01/03 02:28:25;;;;;;;10.75;6.38;;;;;;;;;;5074527;28;20199;-77
2021/01/03 02:30:53;;;;;;;10.30;6.88;;;;;;;;;;5072243;28;20202;-77
2021/01/03 02:33:22;;;;;;;9.65;6.57;;;;;;;;;;5068441;28;20247;-78
2021/01/03 02:35:50;;;;;;;10.10;6.40;;;;;;;;;;5071638;28;20213;-77
2021/01/03 02:38:20;;;;;;;9.85;6.90;;;;;;;;;;5072032;28;20424;-77
2021/01/03 02:40:46;;;;;;;10.48;7.07;;;;;;;;;;5070855;28;20296;-76
2021/01/03 02:43:14;;;;;;;8.82;6.18;;;;;;;;;;5071898;28;20246;-77
2021/01/03 02:45:41;;;;;;;11.27;7.60;;;;;;;;;;5073064;28;20205;-78
2021/01/03 02:48:10;;;;;;;11.40;7.80;;;;;;;;;;5074033;28;20251;-77
2021/01/03 02:50:37;;;;;;;13.45;8.50;;;;;;;;;;5072941;28;20248;-77
2021/01/03 02:53:04;;;;;;;14.43;9.18;;;;;;;;;;5070422;28;20221;-77
2021/01/03 02:55:31;;;;;;;12.82;9.70;;;;;;;;;;5069447;28;20195;-76
2021/01/03 02:57:58;;;;;;;14.05;8.82;;;;;;;;;;5070880;28;20621;-77
2021/01/03 03:00:26;;;;;;;13.80;9.82;;;;;;;;;;5069971;28;20710;-77
2021/01/03 03:02:53;;;;;;;14.55;8.65;;;;;;;;;;5071605;28;20375;-78
2021/01/03 03:05:20;;;;;;;9.75;7.07;;;;;;;;;;5071686;28;20198;-77
2021/01/03 03:07:47;;;;;;;11.05;7.60;;;;;;;;;;5072292;28;20198;-77
2021/01/03 03:10:15;;;;;;;9.52;6.07;;;;;;;;;;5073384;28;20284;-77
2021/01/03 03:12:42;;;;;;;6.82;5.22;;;;;;;;;;5073317;28;20213;-77
2021/01/03 03:15:10;;;;;;;7.75;5.47;;;;;;;;;;5070011;28;20269;-77
2021/01/03 03:17:38;;;;;;;6.72;4.55;;;;;;;;;;5068931;28;20193;-76
2021/01/03 03:20:05;;;;;;;5.25;3.88;;;;;;;;;;5070751;28;20467;-76
2021/01/03 03:22:32;;;;;;;5.25;4.13;;;;;;;;;;5071034;28;20199;-76
2021/01/03 03:24:59;;;;;;;4.50;3.42;;;;;;;;;;5070933;28;20229;-77
2021/01/03 03:27:26;;;;;;;4.30;3.70;;;;;;;;;;5071116;28;20289;-77
2021/01/03 03:29:52;;;;;;;5.25;4.13;;;;;;;;;;5073238;28;20208;-77
2021/01/03 03:32:19;;;;;;;5.00;4.32;;;;;;;;;;5073057;28;20204;-76
2021/01/03 03:34:47;;;;;;;5.53;4.40;;;;;;;;;;5072959;28;20305;-76
2021/01/03 03:37:14;;;;;;;4.50;3.33;;;;;;;;;;5070665;28;20216;-77
2021/01/03 03:39:41;;;;;;;6.00;4.30;;;;;;;;;;5068336;28;20640;-77
2021/01/03 03:42:07;;;;;;;6.28;3.90;;;;;;;;;;5070418;28;20680;-77
2021/01/03 03:44:34;;;;;;;7.00;3.72;;;;;;;;;;5070644;28;20240;-77
2021/01/03 03:47:02;;;;;;;7.30;4.30;;;;;;;;;;5070792;28;20255;-78
2021/01/03 03:49:29;;;;;;;6.05;4.90;;;;;;;;;;5070983;28;20201;-77
2021/01/03 03:51:58;;;;;;;6.78;5.35;;;;;;;;;;5071463;28;20208;-77
2021/01/03 03:54:25;;;;;;;7.60;4.90;;;;;;;;;;5072500;28;20224;-77
2021/01/03 03:56:52;;;;;;;7.13;5.00;;;;;;;;;;5072681;28;20195;-77
2021/01/03 03:59:19;;;;;;;5.60;5.00;;;;;;;;;;5070280;28;20601;-76
2021/01/03 04:01:46;;;;;;;7.18;5.00;;;;;;;;;;5067865;28;20224;-78
2021/01/03 04:04:13;;;;;;;7.85;5.70;;;;;;;;;;5050076;28;20311;-77
2021/01/03 04:06:40;;;;;;;7.40;5.30;;;;;;;;;;5048858;28;20614;-77
2021/01/03 04:09:07;;;;;;;8.65;4.90;;;;;;;;;;5050236;28;20199;-77
2021/01/03 04:11:34;;;;;;;8.15;4.93;;;;;;;;;;5056952;28;20201;-77
2021/01/03 04:14:01;;;;;;;7.45;4.90;;;;;;;;;;5071242;28;20308;-77
2021/01/03 04:16:28;;;;;;;5.25;4.15;;;;;;;;;;5072405;28;20240;-76
2021/01/03 04:18:54;;;;;;;7.60;5.38;;;;;;;;;;5072290;28;20223;-76
2021/01/03 04:21:21;;;;;;;6.70;4.65;;;;;;;;;;5069982;28;20232;-77
2021/01/03 04:23:48;;;;;;;8.07;5.68;;;;;;;;;;5067691;28;20210;-76
2021/01/03 04:26:17;;;;;;;6.60;4.60;;;;;;;;;;5070043;28;20203;-77
2021/01/03 04:28:43;;;;;;;7.07;5.13;;;;;;;;;;5068924;28;20298;-77
2021/01/03 04:31:10;;;;;;;8.43;5.93;;;;;;;;;;5070327;28;20206;-76
2021/01/03 04:33:37;;;;;;;8.57;5.90;;;;;;;;;;5070525;28;20250;-76
2021/01/03 04:36:05;;;;;;;9.82;7.00;;;;;;;;;;5072145;28;20194;-76
2021/01/03 04:38:32;;;;;;;7.28;5.70;;;;;;;;;;5072309;28;20218;-76
2021/01/03 04:40:58;;;;;;;11.30;7.65;;;;;;;;;;5072279;28;20235;-77
2021/01/03 04:43:26;;;;;;;13.90;9.13;;;;;;;;;;5069707;28;20644;-76
2021/01/03 04:46:00;;;;;;;18.45;12.23;;;;;;;;;;5067619;28;20251;-76
2021/01/03 04:48:29;;;;;;;19.55;12.88;;;;;;;;;;5069470;28;20713;-76
2021/01/03 04:51:03;;;;;;;23.52;14.10;;;;;;;;;;5070157;28;20209;-76
2021/01/03 04:53:38;;;;;;;22.38;13.15;;;;;;;;;;5070152;28;20226;-77
2021/01/03 04:56:16;;;;;;;25.20;15.77;;;;;;;;;;5070670;28;20201;-77
2021/01/03 04:58:48;;;;;;;22.17;13.35;;;;;;;;;;5071972;28;20218;-76
2021/01/03 05:01:27;;;;;;;28.23;13.98;;;;;;;;;;5070614;28;20236;-76
2021/01/03 05:04:09;;;;;;;21.73;13.57;;;;;;;;;;5071988;28;20222;-77
2021/01/03 05:06:36;;;;;;;18.30;12.70;;;;;;;;;;5067298;28;20195;-77
2021/01/03 05:09:05;;;;;;;16.27;10.75;;;;;;;;;;5068656;28;20558;-78
2021/01/03 05:11:37;;;;;;;15.57;10.43;;;;;;;;;;5073669;28;20255;-76
2021/01/03 05:14:10;;;;;;;16.70;10.15;;;;;;;;;;5073577;28;20629;-78
2021/01/03 05:16:37;;;;;;;11.73;9.35;;;;;;;;;;5073517;28;20721;-77
2021/01/03 05:19:04;;;;;;;14.45;9.00;;;;;;;;;;5074799;28;20225;-77
2021/01/03 05:21:44;;;;;;;13.05;8.85;;;;;;;;;;5075600;28;20259;-77
2021/01/03 05:24:11;;;;;;;11.65;8.95;;;;;;;;;;5075269;28;20232;-77
2021/01/03 05:26:39;;;;;;;11.23;7.18;;;;;;;;;;5074795;28;20629;-77
2021/01/03 05:29:08;;;;;;;11.20;7.95;;;;;;;;;;5070932;28;20201;-77
2021/01/03 05:31:34;;;;;;;11.43;7.40;;;;;;;;;;5072055;28;20198;-77
2021/01/03 05:34:02;;;;;;;14.07;7.90;;;;;;;;;;5073031;28;20226;-77
2021/01/03 05:36:31;;;;;;;11.43;7.70;;;;;;;;;;5071918;28;20290;-77
2021/01/03 05:38:58;;;;;;;12.45;7.97;;;;;;;;;;5072052;28;20295;-77
2021/01/03 05:41:32;;;;;;;13.60;8.38;;;;;;;;;;5074580;28;20202;-77
2021/01/03 05:44:09;;;;;;;11.77;8.63;;;;;;;;;;5075117;28;20222;-77
2021/01/03 05:46:38;;;;;;;13.38;8.50;;;;;;;;;;5073933;28;20288;-77
2021/01/03 05:49:06;;;;;;;11.75;8.55;;;;;;;;;;5072403;28;20240;-78
2021/01/03 05:51:36;;;;;;;12.80;8.55;;;;;;;;;;5070793;28;20256;-77
2021/01/03 05:54:04;;;;;;;14.35;9.77;;;;;;;;;;5072225;28;20263;-78
2021/01/03 05:56:33;;;;;;;16.33;11.32;;;;;;;;;;5071257;28;20202;-77
2021/01/03 05:58:59;;;;;;;18.20;10.55;;;;;;;;;;5071443;28;20313;-77
2021/01/03 06:01:29;;;;;;;11.82;9.38;;;;;;;;;;5072634;28;21186;-77
2021/01/03 06:04:06;;;;;;;15.63;10.07;;;;;;;;;;5074843;28;20701;-77
2021/01/03 06:06:38;;;;;;;11.88;8.70;;;;;;;;;;5074667;28;20682;-77
2021/01/03 06:09:06;;;;;;;12.68;9.55;;;;;;;;;;5073728;28;20250;-77
2021/01/03 06:11:33;;;;;;;14.18;9.55;;;;;;;;;;5072475;28;20194;-78
2021/01/03 06:14:00;;;;;;;12.00;8.93;;;;;;;;;;5069887;28;20219;-78
2021/01/03 06:16:27;;;;;;;15.82;10.05;;;;;;;;;;5072067;28;20221;-78
2021/01/03 06:19:01;;;;;;;13.40;9.02;;;;;;;;;;5071036;28;20226;-77
2021/01/03 06:21:31;;;;;;;16.23;9.55;;;;;;;;;;5071430;28;20396;-79
2021/01/03 06:24:03;;;;;;;15.80;10.23;;;;;;;;;;5071457;28;20267;-78
2021/01/03 06:26:33;;;;;;;17.77;10.82;;;;;;;;;;5074388;28;20198;-78
2021/01/03 06:29:03;;;;;;;14.27;9.15;;;;;;;;;;5074567;28;20248;-77
2021/01/03 06:31:43;;;;;;;16.50;11.45;;;;;;;;;;5074431;28;20294;-77
2021/01/03 06:34:14;;;;;;;15.73;11.13;;;;;;;;;;5071339;28;20246;-77
2021/01/03 06:36:46;;;;;;;22.83;11.88;;;;;;;;;;5069208;28;20198;-77
2021/01/03 06:39:20;;;;;;;20.73;12.32;;;;;;;;;;5072135;28;20221;-77
2021/01/03 06:41:49;;;;;;;19.60;12.20;;;;;;;;;;5070789;28;20212;-79
2021/01/03 06:44:27;;;;;;;17.55;11.82;;;;;;;;;;5071985;28;20221;-77
2021/01/03 06:47:03;;;;;;;18.42;12.20;;;;;;;;;;5072889;28;20212;-77
2021/01/03 06:49:38;;;;;;;18.60;10.60;;;;;;;;;;5073753;28;20219;-77
2021/01/03 06:52:13;;;;;;;18.33;11.13;;;;;;;;;;5074011;28;20211;-76
2021/01/03 06:54:55;;;;;;;17.55;10.45;;;;;;;;;;5073362;28;20225;-77
2021/01/03 06:57:36;;;;;;;17.90;11.18;;;;;;;;;;5068067;28;20202;-76
2021/01/03 07:00:18;;;;;;;16.10;10.90;;;;;;;;;;5069365;28;20222;-79
2021/01/03 07:02:48;;;;;;;14.30;9.70;;;;;;;;;;5070219;28;20194;-81
2021/01/03 07:05:15;;;;;;;15.50;9.73;;;;;;;;;;5071226;28;20589;-77
2021/01/03 07:07:45;;;;;;;15.20;9.63;;;;;;;;;;5071447;28;20605;-76
2021/01/03 07:10:13;;;;;;;15.80;10.20;;;;;;;;;;5073362;28;20210;-77
2021/01/03 07:12:41;;;;;;;14.52;9.77;;;;;;;;;;5073266;28;20198;-76
2021/01/03 07:15:10;;;;;;;13.57;9.88;;;;;;;;;;5073483;28;20216;-77
2021/01/03 07:17:52;;;;;;;12.18;8.23;;;;;;;;;;5071349;28;20202;-77
2021/01/03 07:20:23;;;;;;;15.68;8.88;;;;;;;;;;5068643;28;20555;-77
2021/01/03 07:23:02;;;;;;;10.50;7.80;;;;;;;;;;5070363;28;20580;-76
2021/01/03 07:25:38;;;;;;;11.77;7.95;;;;;;;;;;5070825;28;20252;-76
2021/01/03 07:28:08;;;;;;;13.25;8.45;;;;;;;;;;5071022;28;20220;-77
2021/01/03 07:30:45;;;;;;;13.90;8.45;;;;;;;;;;5071267;28;20678;-78
2021/01/03 07:33:16;;;;;;;13.23;7.93;;;;;;;;;;5068698;28;20222;-78
2021/01/03 07:35:43;;;;;;;14.93;9.60;;;;;;;;;;5068833;28;20193;-78
2021/01/03 07:38:22;;;;;;;12.63;8.52;;;;;;;;;;5069840;28;20304;-78
2021/01/03 07:40:51;;;;;;;10.70;7.97;;;;;;;;;;5069589;28;20202;-77
2021/01/03 07:43:18;;;;;;;11.68;8.40;;;;;;;;;;5070894;28;20228;-77
2021/01/03 07:45:46;;;;;;;11.32;7.93;;;;;;;;;;5071697;28;20285;-77
2021/01/03 07:48:27;;;;;;;11.95;8.90;;;;;;;;;;5072644;28;20202;-77
2021/01/03 07:50:54;;;;;;;10.82;8.00;;;;;;;;;;5071593;28;20656;-77
2021/01/03 07:53:29;;;;;;;12.10;8.27;;;;;;;;;;5072421;28;20229;-77
2021/01/03 07:56:13;;;;;;;10.98;8.25;;;;;;;;;;5067993;28;20201;-77
2021/01/03 07:58:39;;;;;;;12.27;7.97;;;;;;;;;;5068352;28;20210;-77
2021/01/03 08:01:07;;;;;;;13.07;8.80;;;;;;;;;;5070154;28;20231;-79
2021/01/03 08:03:34;;;;;;;10.48;7.32;;;;;;;;;;5070644;28;20225;-78
2021/01/03 08:06:05;;;;;;;11.88;7.72;;;;;;;;;;5070261;28;20251;-78
2021/01/03 08:08:33;;;;;;;10.60;7.40;;;;;;;;;;5052535;28;20536;-76
2021/01/03 08:11:06;;;;;;;11.82;8.35;;;;;;;;;;5052578;28;20275;-78
2021/01/03 08:13:35;;;;;;;11.73;7.80;;;;;;;;;;5052688;28;20221;-79
2021/01/03 08:16:02;;;;;;;10.48;7.65;;;;;;;;;;5057265;28;20289;-77
2021/01/03 08:18:31;;;;;;;12.20;8.52;;;;;;;;;;5066847;28;20210;-77
2021/01/03 08:21:04;;;;;;;12.20;8.15;;;;;;;;;;5069677;28;20213;-76
2021/01/03 08:23:33;;;;;;;14.40;8.88;;;;;;;;;;5069183;28;20244;-78
2021/01/03 08:26:05;;;;;;;12.88;9.00;;;;;;;;;;5070781;28;20202;-78
2021/01/03 08:28:35;;;;;;;11.65;9.23;;;;;;;;;;5069712;28;20616;-78
2021/01/03 08:31:02;;;;;;;12.07;8.65;;;;;;;;;;5068061;28;20597;-78
2021/01/03 08:33:32;;;;;;;12.35;9.10;;;;;;;;;;5068512;28;20228;-77
2021/01/03 08:36:13;;;;;;;13.10;9.70;;;;;;;;;;5067867;28;20198;-76
2021/01/03 08:38:40;;;;;;;10.68;8.38;;;;;;;;;;5049528;28;20207;-77
2021/01/03 08:41:07;;;;;;;12.38;8.00;;;;;;;;;;5050114;28;20209;-78
2021/01/03 08:43:36;;;;;;;13.68;8.55;;;;;;;;;;5054938;28;20243;-79
2021/01/03 08:46:04;;;;;;;13.95;9.60;;;;;;;;;;5069458;28;20668;-76
2021/01/03 08:48:31;;;;;;;12.50;8.43;;;;;;;;;;5073185;28;20198;-78
2021/01/03 08:51:07;;;;;;;12.68;8.45;;;;;;;;;;5058562;28;20289;-78
2021/01/03 08:53:35;;;;;;;12.95;8.10;;;;;;;;;;5070453;28;20210;-77
2021/01/03 08:56:04;;;;;;;14.05;9.23;;;;;;;;;;5075325;28;20287;-76
2021/01/03 08:58:35;;;;;;;12.15;9.02;;;;;;;;;;5076525;28;20313;-77
2021/01/03 09:01:03;;;;;;;12.98;9.32;;;;;;;;;;5076475;28;20317;-77
2021/01/03 09:03:30;;;;;;;13.13;9.52;;;;;;;;;;5077215;28;20303;-76
2021/01/03 09:05:58;;;;;;;14.05;9.20;;;;;;;;;;5076597;28;20565;-76
2021/01/03 09:08:28;;;;;;;13.52;8.85;;;;;;;;;;5073410;28;20210;-76
2021/01/03 09:11:02;;;;;;;14.55;9.57;;;;;;;;;;5065413;28;20194;-77
2021/01/03 09:13:29;;;;;;;11.73;8.15;;;;;;;;;;5066094;28;20375;-76
2021/01/03 09:16:05;;;;;;;11.43;8.00;;;;;;;;;;5057293;28;20286;-76
2021/01/03 09:18:35;;;;;;;13.73;9.27;;;;;;;;;;5059787;28;20317;-74
2021/01/03 09:21:04;;;;;;;10.98;9.15;;;;;;;;;;5075100;28;20233;-74
2021/01/03 09:23:33;;;;;;;13.02;7.45;;;;;;;;;;5073823;28;20347;-76
2021/01/03 09:26:02;;;;;;;11.43;8.20;;;;;;;;;;5073852;28;20547;-76
2021/01/03 09:28:32;;;;;;;13.07;8.30;;;;;;;;;;5061878;28;20277;-76
2021/01/03 09:31:13;;;;;;;12.98;8.52;;;;;;;;;;5069205;28;20347;-76
2021/01/03 09:33:41;;;;;;;11.88;9.48;;;;;;;;;;5071949;28;20617;-76
2021/01/03 09:36:16;;;;;;;12.32;8.73;;;;;;;;;;5069334;28;20200;-76
2021/01/03 09:38:56;;;;;;;14.68;9.35;;;;;;;;;;5069326;28;20698;-76
2021/01/03 09:41:30;;;;;;;12.38;9.30;;;;;;;;;;5072670;28;20198;-76
2021/01/03 09:44:03;;;;;;;14.13;9.45;;;;;;;;;;5069596;28;20221;-75
2021/01/03 09:46:31;;;;;;;12.68;8.30;;;;;;;;;;5068404;28;20194;-76
2021/01/03 09:49:12;;;;;;;12.30;9.27;;;;;;;;;;5063001;28;20213;-76
2021/01/03 09:51:48;;;;;;;9.50;6.95;;;;;;;;;;5066067;28;20198;-77
2021/01/03 09:54:16;;;;;;;14.05;8.15;;;;;;;;;;5069655;28;20607;-77
2021/01/03 09:56:45;;;;;;;11.02;7.82;;;;;;;;;;5059979;28;20249;-76
2021/01/03 09:59:14;;;;;;;13.48;8.43;;;;;;;;;;5061615;28;20635;-77
2021/01/03 10:01:41;;;;;;;11.50;8.70;;;;;;;;;;5064662;28;20245;-75
2021/01/03 10:04:17;;;;;;;12.02;8.65;;;;;;;;;;5054461;28;20307;-77
2021/01/03 10:06:46;;;;;;;11.20;8.60;;;;;;;;;;5062358;28;20282;-76
2021/01/03 10:09:14;;;;;;;11.02;8.18;;;;;;;;;;5066302;28;20192;-76
2021/01/03 10:11:42;;;;;;;10.88;7.50;;;;;;;;;;5052512;28;20294;-77
2021/01/03 10:14:10;;;;;;;12.70;8.20;;;;;;;;;;5057321;28;20210;-76
2021/01/03 10:16:38;;;;;;;13.25;8.90;;;;;;;;;;5072139;28;20195;-76
2021/01/03 10:19:20;;;;;;;13.45;9.65;;;;;;;;;;5065220;28;20223;-76
2021/01/03 10:21:48;;;;;;;11.23;8.52;;;;;;;;;;5052952;28;20291;-76
2021/01/03 10:24:18;;;;;;;12.75;8.75;;;;;;;;;;5054196;28;20548;-76
2021/01/03 10:26:45;;;;;;;11.95;8.38;;;;;;;;;;5059782;28;20197;-76
2021/01/03 10:29:12;;;;;;;13.90;9.57;;;;;;;;;;5062325;28;20288;-76
2021/01/03 10:31:41;;;;;;;11.32;8.75;;;;;;;;;;5068957;28;20631;-75
2021/01/03 10:34:07;;;;;;;14.40;10.23;;;;;;;;;;5063232;28;20642;-76
2021/01/03 10:36:34;;;;;;;12.75;8.68;;;;;;;;;;5051297;28;20233;-75
2021/01/03 10:39:03;;;;;;;11.73;9.20;;;;;;;;;;5060162;28;20224;-76
2021/01/03 10:41:31;;;;;;;13.50;9.68;;;;;;;;;;5054698;28;20199;-76
2021/01/03 10:43:58;;;;;;;13.80;9.30;;;;;;;;;;5072573;28;20275;-76
2021/01/03 10:46:25;;;;;;;11.82;8.25;;;;;;;;;;5073681;28;20200;-76
2021/01/03 10:48:52;;;;;;;10.43;7.65;;;;;;;;;;5073596;28;20205;-75
2021/01/03 10:51:19;;;;;;;12.93;9.00;;;;;;;;;;5072348;28;20212;-84
2021/01/03 10:53:46;;;;;;;12.88;8.90;;;;;;;;;;5067275;28;20218;-76
2021/01/03 10:56:13;;;;;;;10.63;8.63;;;;;;;;;;5068107;28;20220;-75
2021/01/03 10:58:40;;;;;;;12.90;8.82;;;;;;;;;;5060034;28;20224;-76
2021/01/03 11:01:07;;;;;;;12.65;9.90;;;;;;;;;;5069965;28;20715;-79
2021/01/03 11:03:34;;;;;;;9.80;8.15;;;;;;;;;;5050348;28;20221;-82
2021/01/03 11:06:01;;;;;;;13.38;8.10;;;;;;;;;;5065204;28;20244;-86
2021/01/03 11:08:28;;;;;;;11.88;8.65;;;;;;;;;;5072930;28;20262;-84
2021/01/03 11:10:54;;;;;;;10.52;8.60;;;;;;;;;;5059045;28;20195;-76
2021/01/03 11:13:22;;;;;;;11.35;8.15;;;;;;;;;;5054873;28;20593;-77
2021/01/03 11:15:49;;;;;;;8.30;6.72;;;;;;;;;;5068810;28;20210;-76
2021/01/03 11:18:16;;;;;;;10.18;7.75;;;;;;;;;;5068823;28;20293;-75
2021/01/03 11:20:43;;;;;;;10.23;7.97;;;;;;;;;;5071401;28;20202;-76
2021/01/03 11:23:10;;;;;;;11.85;9.20;;;;;;;;;;5070968;28;20699;-76
2021/01/03 11:25:36;;;;;;;12.20;8.07;;;;;;;;;;5070101;28;20205;-76
2021/01/03 11:28:04;;;;;;;9.35;7.65;;;;;;;;;;5052784;28;20203;-76
2021/01/03 11:30:32;;;;;;;10.60;8.10;;;;;;;;;;5052992;28;20620;-76
2021/01/03 11:32:58;;;;;;;8.85;7.78;;;;;;;;;;5053857;28;22018;-76
2021/01/03 11:35:25;;;;;;;8.32;7.53;;;;;;;;;;5053159;28;20206;-76
2021/01/03 11:37:52;;;;;;;8.98;7.60;;;;;;;;;;5066218;28;20289;-76
2021/01/03 11:40:19;;;;;;;11.05;7.72;;;;;;;;;;5068407;28;20216;-76
2021/01/03 11:42:45;;;;;;;10.30;7.38;;;;;;;;;;5070756;28;20289;-77
2021/01/03 11:45:13;;;;;;;10.00;8.25;;;;;;;;;;5068484;28;20201;-77
2021/01/03 11:47:41;;;;;;;9.10;7.35;;;;;;;;;;5071238;28;20204;-76
2021/01/03 11:50:10;;;;;;;9.93;7.65;;;;;;;;;;5069985;28;20208;-77
2021/01/03 11:52:37;;;;;;;9.30;7.47;;;;;;;;;;5071777;28;20278;-75
2021/01/03 11:55:05;;;;;;;10.18;7.28;;;;;;;;;;5072729;28;20233;-76
2021/01/03 11:57:32;;;;;;;11.02;8.50;;;;;;;;;;5071258;28;20197;-76
2021/01/03 11:59:58;;;;;;;9.05;7.38;;;;;;;;;;5068768;28;20292;-76
2021/01/03 12:02:25;;;;;;;8.40;7.18;;;;;;;;;;5068608;28;20191;-76
2021/01/03 12:04:53;;;;;;;8.70;7.40;;;;;;;;;;5061305;28;20298;-77
2021/01/03 12:07:20;;;;;;;10.02;7.13;;;;;;;;;;5049851;28;20371;-76
2021/01/03 12:09:47;;;;;;;7.90;6.80;;;;;;;;;;5048812;28;20191;-76
2021/01/03 12:12:15;;;;;;;9.55;7.57;;;;;;;;;;5064571;28;20230;-75
2021/01/03 12:14:42;;;;;;;8.45;7.22;;;;;;;;;;5067594;28;20225;-76
2021/01/03 12:17:10;;;;;;;9.05;7.72;;;;;;;;;;5068897;28;20292;-75
2021/01/03 12:19:37;;;;;;;11.75;7.47;;;;;;;;;;5070135;28;20218;-76
2021/01/03 12:22:06;;;;;;;7.90;7.10;;;;;;;;;;5066094;28;20282;-75
2021/01/03 12:24:33;;;;;;;10.18;7.65;;;;;;;;;;5066403;28;20561;-75
2021/01/03 12:27:00;;;;;;;8.60;7.70;;;;;;;;;;5060286;28;20195;-75
2021/01/03 12:29:27;;;;;;;8.55;7.60;;;;;;;;;;5062180;28;20201;-75
2021/01/03 12:31:55;;;;;;;10.68;7.35;;;;;;;;;;5056288;28;20290;-76
2021/01/03 12:34:23;;;;;;;11.05;7.75;;;;;;;;;;5052632;28;20573;-75
2021/01/03 12:36:50;;;;;;;8.90;7.60;;;;;;;;;;5064891;28;20546;-75
2021/01/03 12:39:19;;;;;;;10.38;7.45;;;;;;;;;;5068521;28;20252;-77
2021/01/03 12:41:47;;;;;;;10.00;7.00;;;;;;;;;;5065457;28;20286;-77
2021/01/03 12:44:14;;;;;;;7.93;6.57;;;;;;;;;;5060979;28;20217;-76
2021/01/03 12:46:42;;;;;;;7.82;6.63;;;;;;;;;;5061444;28;20278;-75
2021/01/03 12:49:09;;;;;;;8.95;6.78;;;;;;;;;;5050545;28;20206;-76
2021/01/03 12:51:36;;;;;;;7.35;6.20;;;;;;;;;;5052027;28;20203;-77
2021/01/03 12:54:04;;;;;;;7.43;6.40;;;;;;;;;;5064659;28;20290;-77
2021/01/03 12:56:31;;;;;;;7.47;6.10;;;;;;;;;;5055044;28;20285;-76
2021/01/03 12:58:59;;;;;;;11.70;6.47;;;;;;;;;;5067340;28;20225;-76
2021/01/03 13:01:29;;;;;;;7.32;6.00;;;;;;;;;;5067812;28;20255;-76
2021/01/03 13:03:56;;;;;;;7.38;5.75;;;;;;;;;;5067902;28;20623;-75
2021/01/03 13:06:23;;;;;;;9.25;5.75;;;;;;;;;;5049379;28;20685;-76
2021/01/03 13:08:49;;;;;;;7.28;5.78;;;;;;;;;;5061520;28;20197;-76
2021/01/03 13:11:16;;;;;;;7.38;5.90;;;;;;;;;;5051135;28;20202;-75
2021/01/03 13:13:44;;;;;;;8.70;6.68;;;;;;;;;;5051960;28;20219;-76
2021/01/03 13:16:11;;;;;;;8.40;6.30;;;;;;;;;;5071476;28;20221;-76
2021/01/03 13:18:38;;;;;;;8.27;5.30;;;;;;;;;;5068303;28;20284;-75
2021/01/03 13:21:06;;;;;;;6.15;4.82;;;;;;;;;;5064575;28;20296;-76
2021/01/03 13:23:33;;;;;;;5.22;4.35;;;;;;;;;;5067578;28;20305;-75
2021/01/03 13:26:00;;;;;;;6.43;4.57;;;;;;;;;;5049168;28;20202;-81
2021/01/03 13:28:27;;;;;;;8.55;5.10;;;;;;;;;;5049453;28;20278;-75
2021/01/03 13:30:55;;;;;;;6.20;4.57;;;;;;;;;;5052728;28;20298;-75
2021/01/03 13:33:22;;;;;;;6.35;4.45;;;;;;;;;;5058330;28;20314;-75
2021/01/03 13:35:49;;;;;;;6.07;4.75;;;;;;;;;;5055136;28;20248;-76
2021/01/03 13:38:16;;;;;;;6.28;4.97;;;;;;;;;;5055057;28;20191;-76
2021/01/03 13:40:43;;;;;;;5.95;4.50;;;;;;;;;;5075117;28;20213;-76
2021/01/03 13:43:11;;;;;;;5.68;5.07;;;;;;;;;;5071912;28;21213;-76
2021/01/03 13:45:37;;;;;;;5.82;4.93;;;;;;;;;;5069154;28;20196;-75
2021/01/03 13:48:06;;;;;;;7.32;4.60;;;;;;;;;;5061966;28;20569;-77
2021/01/03 13:50:33;;;;;;;6.05;4.50;;;;;;;;;;5053155;28;20281;-76
2021/01/03 13:53:02;;;;;;;8.05;5.00;;;;;;;;;;5052871;28;20226;-76
2021/01/03 13:55:30;;;;;;;5.25;4.38;;;;;;;;;;5065441;28;20206;-75
2021/01/03 13:57:57;;;;;;;5.22;4.65;;;;;;;;;;5074919;28;20206;-77
2021/01/03 14:00:25;;;;;;;5.28;4.78;;;;;;;;;;5073787;28;20595;-75
2021/01/03 14:02:53;;;;;;;6.20;5.60;;;;;;;;;;5065739;28;20195;-78
2021/01/03 14:05:21;;;;;;;6.88;4.65;;;;;;;;;;5060179;28;20232;-84
2021/01/03 14:07:48;;;;;;;6.03;4.80;;;;;;;;;;5065566;28;20199;-76
2021/01/03 14:10:16;;;;;;;5.40;4.90;;;;;;;;;;5051083;28;20201;-78
2021/01/03 14:12:42;;;;;;;5.78;4.97;;;;;;;;;;5049421;28;20766;-76
2021/01/03 14:15:11;;;;;;;5.80;4.55;;;;;;;;;;5051052;28;20232;-76
2021/01/03 14:17:38;;;;;;;6.20;5.13;;;;;;;;;;5050239;28;20238;-78
2021/01/03 14:20:06;;;;;;;6.30;4.47;;;;;;;;;;5053410;28;20252;-76
2021/01/03 14:22:33;;;;;;;6.43;5.00;;;;;;;;;;5053112;28;20195;-77
2021/01/03 14:25:00;;;;;;;6.03;4.93;;;;;;;;;;5053314;28;20723;-78
2021/01/03 14:27:27;;;;;;;6.32;5.10;;;;;;;;;;5060341;28;20602;-76
2021/01/03 14:29:54;;;;;;;5.72;4.90;;;;;;;;;;5069772;28;20182;-77
2021/01/03 14:32:21;;;;;;;8.90;5.10;;;;;;;;;;5059755;28;20205;-77
2021/01/03 14:34:49;;;;;;;6.65;5.10;;;;;;;;;;5052029;28;20591;-78
2021/01/03 14:37:19;;;;;;;5.70;5.10;;;;;;;;;;5050253;28;20260;-77
2021/01/03 14:39:48;;;;;;;5.00;4.40;;;;;;;;;;5052479;28;20225;-77